Terminal Aerodrome Forecast
Issued by NWS Pocatello, ID

Home | Current Version | Previous Version | Text Only | Print | Product List | Glossary On
Versions: 1 2 3 4 5 6 7 8 9 10 11 12 13 14 15 16 17 18 19 20 21
000
FTUS45 KPIH 210500
TAFIDA
TAF
KIDA 210520Z 2106/2206 02006KT P6SM SCT090 BKN160
     FM210900 VRB05KT P6SM VCSH BKN090 BKN120 OVC140
     FM211200 21006KT P6SM -SHRA BKN080 OVC100
     FM211800 24010KT P6SM -SHRA VCTS BKN060CB BKN090
     FM220000 24006KT P6SM VCTS BKN090CB=

USA.gov is the U.S. government's official web portal to all federal, state and local government web resources and services.